sensor_id;sensor_type;location;lat;lon;timestamp;pressure;altitude;pressure_sealevel;temperature;humidity
13952;BME280;39535;52.192;9.886;2023-09-18T00:00:28;99917.91;;;21.60;86.63
13952;BME280;39535;52.192;9.886;2023-09-18T00:02:57;99909.91;;;21.60;86.71
13952;BME280;39535;52.192;9.886;2023-09-18T00:05:24;99906.78;;;21.55;86.56
13952;BME280;39535;52.192;9.886;2023-09-18T00:07:51;99914.94;;;21.52;86.46
13952;BME280;39535;52.192;9.886;2023-09-18T00:10:18;99916.13;;;21.48;86.59
13952;BME280;39535;52.192;9.886;2023-09-18T00:12:44;99904.88;;;21.44;86.61
13952;BME280;39535;52.192;9.886;2023-09-18T00:15:12;99893.50;;;21.42;86.68
13952;BME280;39535;52.192;9.886;2023-09-18T00:17:40;99885.03;;;21.37;86.76
13952;BME280;39535;52.192;9.886;2023-09-18T00:20:07;99856.03;;;21.34;87.12
13952;BME280;39535;52.192;9.886;2023-09-18T00:22:34;99851.91;;;21.30;87.62
13952;BME280;39535;52.192;9.886;2023-09-18T00:25:01;99840.22;;;21.32;87.99
13952;BME280;39535;52.192;9.886;2023-09-18T00:27:29;99844.69;;;21.32;87.82
13952;BME280;39535;52.192;9.886;2023-09-18T00:29:57;99831.31;;;21.33;88.01
13952;BME280;39535;52.192;9.886;2023-09-18T00:32:24;99819.13;;;21.31;88.27
13952;BME280;39535;52.192;9.886;2023-09-18T00:34:52;99818.25;;;21.30;88.28
13952;BME280;39535;52.192;9.886;2023-09-18T00:37:19;99811.47;;;21.26;88.40
13952;BME280;39535;52.192;9.886;2023-09-18T00:39:46;99805.94;;;21.29;88.26
13952;BME280;39535;52.192;9.886;2023-09-18T00:42:12;99808.91;;;21.25;88.68
13952;BME280;39535;52.192;9.886;2023-09-18T00:44:41;99798.53;;;21.21;88.57
13952;BME280;39535;52.192;9.886;2023-09-18T00:47:07;99796.97;;;21.19;88.70
13952;BME280;39535;52.192;9.886;2023-09-18T00:49:35;99783.56;;;21.20;88.96
13952;BME280;39535;52.192;9.886;2023-09-18T00:52:06;99777.88;;;21.14;89.30
13952;BME280;39535;52.192;9.886;2023-09-18T00:54:34;99770.66;;;21.16;89.26
13952;BME280;39535;52.192;9.886;2023-09-18T00:57:02;99756.75;;;21.12;89.72
13952;BME280;39535;52.192;9.886;2023-09-18T00:59:32;99755.28;;;21.08;90.17
13952;BME280;39535;52.192;9.886;2023-09-18T01:02:00;99733.31;;;21.06;90.06
13952;BME280;39535;52.192;9.886;2023-09-18T01:04:28;99731.19;;;21.11;90.00
13952;BME280;39535;52.192;9.886;2023-09-18T01:06:57;99736.34;;;21.13;89.80
13952;BME280;39535;52.192;9.886;2023-09-18T01:09:28;99739.97;;;21.12;89.18
13952;BME280;39535;52.192;9.886;2023-09-18T01:12:01;99741.66;;;21.13;89.04
13952;BME280;39535;52.192;9.886;2023-09-18T01:14:33;99743.25;;;21.15;88.94
13952;BME280;39535;52.192;9.886;2023-09-18T01:17:04;99746.88;;;21.14;88.80
13952;BME280;39535;52.192;9.886;2023-09-18T01:19:37;99739.75;;;21.15;88.64
13952;BME280;39535;52.192;9.886;2023-09-18T01:22:04;99740.72;;;21.14;88.48
13952;BME280;39535;52.192;9.886;2023-09-18T01:24:32;99731.91;;;21.13;88.38
13952;BME280;39535;52.192;9.886;2023-09-18T01:26:59;99741.56;;;21.14;88.11
13952;BME280;39535;52.192;9.886;2023-09-18T01:29:27;99742.63;;;21.12;88.25
13952;BME280;39535;52.192;9.886;2023-09-18T01:31:54;99742.63;;;21.12;87.95
13952;BME280;39535;52.192;9.886;2023-09-18T01:34:21;99743.81;;;21.08;88.12
13952;BME280;39535;52.192;9.886;2023-09-18T01:36:52;99756.25;;;21.07;87.60
13952;BME280;39535;52.192;9.886;2023-09-18T01:39:20;99757.31;;;21.05;87.75
13952;BME280;39535;52.192;9.886;2023-09-18T01:41:49;99738.34;;;20.98;88.52
13952;BME280;39535;52.192;9.886;2023-09-18T01:44:16;99734.72;;;20.99;88.67
13952;BME280;39535;52.192;9.886;2023-09-18T01:46:44;99724.09;;;20.99;88.61
13952;BME280;39535;52.192;9.886;2023-09-18T01:49:26;99730.28;;;20.99;88.44
13952;BME280;39535;52.192;9.886;2023-09-18T01:51:56;99726.66;;;21.00;88.43
13952;BME280;39535;52.192;9.886;2023-09-18T01:54:23;99734.13;;;20.95;87.59
13952;BME280;39535;52.192;9.886;2023-09-18T01:56:51;99742.41;;;20.91;87.31
13952;BME280;39535;52.192;9.886;2023-09-18T01:59:19;99736.50;;;20.87;87.65
13952;BME280;39535;52.192;9.886;2023-09-18T02:01:46;99729.59;;;20.85;87.86
13952;BME280;39535;52.192;9.886;2023-09-18T02:04:14;99727.19;;;20.81;88.23
13952;BME280;39535;52.192;9.886;2023-09-18T02:06:41;99719.09;;;20.83;88.41
13952;BME280;39535;52.192;9.886;2023-09-18T02:09:07;99709.66;;;20.79;88.42
13952;BME280;39535;52.192;9.886;2023-09-18T02:11:35;99712.56;;;20.76;88.67
13952;BME280;39535;52.192;9.886;2023-09-18T02:14:04;99705.31;;;20.78;88.53
13952;BME280;39535;52.192;9.886;2023-09-18T02:16:32;99700.22;;;20.75;88.86
13952;BME280;39535;52.192;9.886;2023-09-18T02:18:58;99692.16;;;20.76;88.67
13952;BME280;39535;52.192;9.886;2023-09-18T02:21:25;99691.34;;;20.76;88.62
13952;BME280;39535;52.192;9.886;2023-09-18T02:23:52;99690.34;;;20.77;88.40
13952;BME280;39535;52.192;9.886;2023-09-18T02:26:19;99690.50;;;20.75;88.44
13952;BME280;39535;52.192;9.886;2023-09-18T02:28:46;99673.59;;;20.39;90.31
13952;BME280;39535;52.192;9.886;2023-09-18T02:31:14;99638.66;;;20.21;91.90
13952;BME280;39535;52.192;9.886;2023-09-18T02:33:41;99630.03;;;20.43;91.04
13952;BME280;39535;52.192;9.886;2023-09-18T02:36:08;99650.22;;;20.57;89.60
13952;BME280;39535;52.192;9.886;2023-09-18T02:38:34;99659.78;;;20.60;89.22
13952;BME280;39535;52.192;9.886;2023-09-18T02:41:01;99668.47;;;20.62;88.77
13952;BME280;39535;52.192;9.886;2023-09-18T02:43:28;99670.38;;;20.47;89.57
13952;BME280;39535;52.192;9.886;2023-09-18T02:45:54;99657.22;;;20.58;89.03
13952;BME280;39535;52.192;9.886;2023-09-18T02:48:22;99657.97;;;20.60;89.08
13952;BME280;39535;52.192;9.886;2023-09-18T02:50:48;99655.53;;;20.57;89.28
13952;BME280;39535;52.192;9.886;2023-09-18T02:53:17;99652.66;;;20.60;89.11
13952;BME280;39535;52.192;9.886;2023-09-18T02:55:44;99649.59;;;20.54;89.47
13952;BME280;39535;52.192;9.886;2023-09-18T02:58:10;99632.81;;;20.53;90.06
13952;BME280;39535;52.192;9.886;2023-09-18T03:00:40;99619.06;;;20.48;90.61
13952;BME280;39535;52.192;9.886;2023-09-18T03:03:08;99613.88;;;20.47;90.77
13952;BME280;39535;52.192;9.886;2023-09-18T03:05:36;99609.41;;;20.47;90.63
13952;BME280;39535;52.192;9.886;2023-09-18T03:08:03;99611.13;;;20.48;90.36
13952;BME280;39535;52.192;9.886;2023-09-18T03:10:32;99606.28;;;20.42;90.17
13952;BME280;39535;52.192;9.886;2023-09-18T03:12:59;99596.84;;;20.38;90.77
13952;BME280;39535;52.192;9.886;2023-09-18T03:15:26;99592.28;;;20.40;90.35
13952;BME280;39535;52.192;9.886;2023-09-18T03:17:52;99598.44;;;20.40;90.41
13952;BME280;39535;52.192;9.886;2023-09-18T03:20:22;99597.59;;;20.40;90.82
13952;BME280;39535;52.192;9.886;2023-09-18T03:22:50;99590.09;;;20.34;90.96
13952;BME280;39535;52.192;9.886;2023-09-18T03:25:17;99584.88;;;20.32;91.14
13952;BME280;39535;52.192;9.886;2023-09-18T03:27:43;99572.59;;;20.31;91.30
13952;BME280;39535;52.192;9.886;2023-09-18T03:30:10;99574.28;;;20.32;91.09
13952;BME280;39535;52.192;9.886;2023-09-18T03:32:40;99570.66;;;20.33;91.16
13952;BME280;39535;52.192;9.886;2023-09-18T03:35:07;99565.59;;;20.30;91.24
13952;BME280;39535;52.192;9.886;2023-09-18T03:37:40;99555.22;;;20.27;91.37
13952;BME280;39535;52.192;9.886;2023-09-18T03:40:09;99551.63;;;20.28;91.26
13952;BME280;39535;52.192;9.886;2023-09-18T03:42:36;99548.88;;;20.30;91.27
13952;BME280;39535;52.192;9.886;2023-09-18T03:45:05;99536.78;;;20.26;91.60
13952;BME280;39535;52.192;9.886;2023-09-18T03:47:33;99531.38;;;20.27;91.92
13952;BME280;39535;52.192;9.886;2023-09-18T03:50:00;99511.97;;;20.27;92.76
13952;BME280;39535;52.192;9.886;2023-09-18T03:52:26;99487.38;;;20.24;93.65
13952;BME280;39535;52.192;9.886;2023-09-18T03:54:53;99482.19;;;20.23;94.07
13952;BME280;39535;52.192;9.886;2023-09-18T03:57:21;99472.84;;;20.30;93.91
13952;BME280;39535;52.192;9.886;2023-09-18T03:59:47;99472.59;;;20.33;93.64
13952;BME280;39535;52.192;9.886;2023-09-18T04:02:13;99482.88;;;20.38;93.14
13952;BME280;39535;52.192;9.886;2023-09-18T04:04:40;99486.00;;;20.43;92.91
13952;BME280;39535;52.192;9.886;2023-09-18T04:07:07;99495.31;;;20.49;92.01
13952;BME280;39535;52.192;9.886;2023-09-18T04:09:33;99496.28;;;20.48;91.34
13952;BME280;39535;52.192;9.886;2023-09-18T04:12:01;99501.13;;;20.54;90.84
13952;BME280;39535;52.192;9.886;2023-09-18T04:14:29;99514.25;;;20.55;90.67
13952;BME280;39535;52.192;9.886;2023-09-18T04:16:58;99511.47;;;20.57;90.09
13952;BME280;39535;52.192;9.886;2023-09-18T04:19:25;99518.81;;;20.53;89.79
13952;BME280;39535;52.192;9.886;2023-09-18T04:21:53;99534.00;;;20.51;89.29
13952;BME280;39535;52.192;9.886;2023-09-18T04:24:20;99533.25;;;20.49;88.73
13952;BME280;39535;52.192;9.886;2023-09-18T04:26:46;99526.13;;;20.38;88.94
13952;BME280;39535;52.192;9.886;2023-09-18T04:29:12;99500.22;;;20.42;89.73
13952;BME280;39535;52.192;9.886;2023-09-18T04:31:40;99505.28;;;20.45;89.00
13952;BME280;39535;52.192;9.886;2023-09-18T04:34:07;99507.63;;;20.50;88.92
13952;BME280;39535;52.192;9.886;2023-09-18T04:36:33;99513.13;;;20.47;88.77
13952;BME280;39535;52.192;9.886;2023-09-18T04:39:01;99509.53;;;20.48;88.18
13952;BME280;39535;52.192;9.886;2023-09-18T04:41:29;99510.75;;;20.55;87.74
13952;BME280;39535;52.192;9.886;2023-09-18T04:43:55;99491.34;;;20.54;88.73
13952;BME280;39535;52.192;9.886;2023-09-18T04:46:22;99481.84;;;20.52;88.61
13952;BME280;39535;52.192;9.886;2023-09-18T04:48:50;99483.28;;;20.56;88.63
13952;BME280;39535;52.192;9.886;2023-09-18T04:51:16;99479.56;;;20.58;88.14
13952;BME280;39535;52.192;9.886;2023-09-18T04:53:43;99490.81;;;20.62;86.99
13952;BME280;39535;52.192;9.886;2023-09-18T04:56:09;99493.94;;;20.67;86.96
13952;BME280;39535;52.192;9.886;2023-09-18T04:58:36;99494.34;;;20.74;86.94
13952;BME280;39535;52.192;9.886;2023-09-18T05:01:03;99506.41;;;20.78;85.76
13952;BME280;39535;52.192;9.886;2023-09-18T05:03:30;99517.38;;;20.85;85.77
13952;BME280;39535;52.192;9.886;2023-09-18T05:05:57;99509.41;;;20.85;86.39
13952;BME280;39535;52.192;9.886;2023-09-18T05:08:24;99518.97;;;20.87;85.27
13952;BME280;39535;52.192;9.886;2023-09-18T05:10:50;99509.19;;;20.88;85.60
13952;BME280;39535;52.192;9.886;2023-09-18T05:13:17;99503.63;;;20.91;85.79
13952;BME280;39535;52.192;9.886;2023-09-18T05:15:43;99494.94;;;20.89;85.91
13952;BME280;39535;52.192;9.886;2023-09-18T05:18:09;99490.38;;;20.91;86.13
13952;BME280;39535;52.192;9.886;2023-09-18T05:20:36;99495.06;;;20.76;86.20
13952;BME280;39535;52.192;9.886;2023-09-18T05:23:04;99518.34;;;20.83;85.58
13952;BME280;39535;52.192;9.886;2023-09-18T05:25:30;99553.66;;;20.84;85.28
13952;BME280;39535;52.192;9.886;2023-09-18T05:27:58;99556.59;;;20.92;83.65
13952;BME280;39535;52.192;9.886;2023-09-18T05:30:26;99562.28;;;21.10;83.62
13952;BME280;39535;52.192;9.886;2023-09-18T05:32:54;99574.13;;;21.17;83.87
13952;BME280;39535;52.192;9.886;2023-09-18T05:35:21;99561.31;;;21.22;84.29
13952;BME280;39535;52.192;9.886;2023-09-18T05:37:48;99550.84;;;21.32;84.33
13952;BME280;39535;52.192;9.886;2023-09-18T05:40:17;99568.00;;;21.39;83.33
13952;BME280;39535;52.192;9.886;2023-09-18T05:42:44;99563.69;;;21.50;83.68
13952;BME280;39535;52.192;9.886;2023-09-18T05:45:14;99570.31;;;21.55;82.43
13952;BME280;39535;52.192;9.886;2023-09-18T05:47:41;99554.63;;;21.64;83.58
13952;BME280;39535;52.192;9.886;2023-09-18T05:52:35;99553.41;;;21.56;83.22
13952;BME280;39535;52.192;9.886;2023-09-18T05:55:02;99542.94;;;21.55;83.69
13952;BME280;39535;52.192;9.886;2023-09-18T05:57:30;99509.25;;;21.55;84.85
13952;BME280;39535;52.192;9.886;2023-09-18T05:59:56;99529.78;;;21.53;83.49
13952;BME280;39535;52.192;9.886;2023-09-18T06:02:23;99553.56;;;21.55;82.77
13952;BME280;39535;52.192;9.886;2023-09-18T06:04:54;99557.16;;;21.54;82.74
13952;BME280;39535;52.192;9.886;2023-09-18T06:07:21;99544.16;;;21.51;83.07
13952;BME280;39535;52.192;9.886;2023-09-18T06:09:48;99539.56;;;21.53;83.06
13952;BME280;39535;52.192;9.886;2023-09-18T06:12:15;99535.69;;;21.57;82.36
13952;BME280;39535;52.192;9.886;2023-09-18T06:14:42;99520.81;;;21.54;82.19
13952;BME280;39535;52.192;9.886;2023-09-18T06:17:10;99510.69;;;21.59;82.11
13952;BME280;39535;52.192;9.886;2023-09-18T06:19:36;99503.22;;;21.65;82.23
13952;BME280;39535;52.192;9.886;2023-09-18T06:22:03;99493.19;;;21.57;81.90
13952;BME280;39535;52.192;9.886;2023-09-18T06:24:30;99490.88;;;21.52;82.14
13952;BME280;39535;52.192;9.886;2023-09-18T06:26:59;99499.72;;;21.53;82.07
13952;BME280;39535;52.192;9.886;2023-09-18T06:29:25;99502.59;;;21.61;81.91
13952;BME280;39535;52.192;9.886;2023-09-18T06:31:55;99474.59;;;21.57;82.25
13952;BME280;39535;52.192;9.886;2023-09-18T06:34:51;99468.19;;;21.59;82.72
13952;BME280;39535;52.192;9.886;2023-09-18T06:37:38;99464.19;;;21.65;82.71
13952;BME280;39535;52.192;9.886;2023-09-18T06:40:22;99482.06;;;21.63;82.85
13952;BME280;39535;52.192;9.886;2023-09-18T06:49:53;99462.50;;;21.64;83.16
13952;BME280;39535;52.192;9.886;2023-09-18T06:52:20;99485.06;;;21.70;82.14
13952;BME280;39535;52.192;9.886;2023-09-18T06:54:46;99467.19;;;21.72;83.25
13952;BME280;39535;52.192;9.886;2023-09-18T06:57:13;99468.41;;;21.79;82.41
13952;BME280;39535;52.192;9.886;2023-09-18T06:59:39;99469.34;;;21.78;81.68
13952;BME280;39535;52.192;9.886;2023-09-18T07:02:05;99514.16;;;21.83;80.77
13952;BME280;39535;52.192;9.886;2023-09-18T07:07:42;99551.31;;;21.94;79.67
13952;BME280;39535;52.192;9.886;2023-09-18T07:10:09;99558.47;;;21.93;79.86
13952;BME280;39535;52.192;9.886;2023-09-18T07:12:35;99549.25;;;21.97;79.85
13952;BME280;39535;52.192;9.886;2023-09-18T07:15:03;99572.09;;;22.00;79.23
13952;BME280;39535;52.192;9.886;2023-09-18T07:17:29;99593.97;;;21.92;77.96
13952;BME280;39535;52.192;9.886;2023-09-18T07:19:56;99584.75;;;22.08;78.92
13952;BME280;39535;52.192;9.886;2023-09-18T07:22:23;99579.44;;;22.08;79.18
13952;BME280;39535;52.192;9.886;2023-09-18T07:24:50;99587.56;;;22.06;79.64
13952;BME280;39535;52.192;9.886;2023-09-18T07:27:35;99575.84;;;22.09;79.78
13952;BME280;39535;52.192;9.886;2023-09-18T07:30:05;99583.53;;;22.12;77.97
13952;BME280;39535;52.192;9.886;2023-09-18T07:32:31;99615.69;;;22.09;76.81
13952;BME280;39535;52.192;9.886;2023-09-18T07:34:58;99607.72;;;22.09;77.54
13952;BME280;39535;52.192;9.886;2023-09-18T07:37:25;99612.53;;;22.15;77.67
13952;BME280;39535;52.192;9.886;2023-09-18T07:39:52;99613.38;;;22.15;77.71
13952;BME280;39535;52.192;9.886;2023-09-18T07:42:19;99612.03;;;22.21;78.37
13952;BME280;39535;52.192;9.886;2023-09-18T07:44:45;99616.06;;;22.27;77.50
13952;BME280;39535;52.192;9.886;2023-09-18T07:47:11;99625.97;;;22.25;77.71
13952;BME280;39535;52.192;9.886;2023-09-18T07:49:38;99635.63;;;22.26;77.46
13952;BME280;39535;52.192;9.886;2023-09-18T07:52:05;99665.25;;;22.32;76.47
13952;BME280;39535;52.192;9.886;2023-09-18T07:54:31;99652.41;;;22.37;77.03
13952;BME280;39535;52.192;9.886;2023-09-18T07:56:59;99651.44;;;22.38;76.48
13952;BME280;39535;52.192;9.886;2023-09-18T07:59:26;99645.50;;;22.46;76.60
13952;BME280;39535;52.192;9.886;2023-09-18T08:01:53;99671.63;;;22.41;74.99
13952;BME280;39535;52.192;9.886;2023-09-18T08:04:19;99676.44;;;22.47;74.94
13952;BME280;39535;52.192;9.886;2023-09-18T08:06:46;99686.72;;;22.52;74.87
13952;BME280;39535;52.192;9.886;2023-09-18T08:09:13;99697.72;;;22.58;75.04
13952;BME280;39535;52.192;9.886;2023-09-18T08:11:41;99696.50;;;22.63;74.96
13952;BME280;39535;52.192;9.886;2023-09-18T08:14:09;99710.03;;;22.59;75.74
13952;BME280;39535;52.192;9.886;2023-09-18T08:16:38;99683.78;;;22.66;75.19
13952;BME280;39535;52.192;9.886;2023-09-18T08:19:04;99726.81;;;22.71;73.59
13952;BME280;39535;52.192;9.886;2023-09-18T08:21:31;99739.66;;;22.66;73.77
13952;BME280;39535;52.192;9.886;2023-09-18T08:23:58;99749.31;;;22.78;74.37
13952;BME280;39535;52.192;9.886;2023-09-18T08:26:24;99734.06;;;22.80;74.27
13952;BME280;39535;52.192;9.886;2023-09-18T08:28:53;99751.47;;;22.85;73.25
13952;BME280;39535;52.192;9.886;2023-09-18T08:31:21;99754.25;;;22.83;73.33
13952;BME280;39535;52.192;9.886;2023-09-18T08:33:48;99757.38;;;22.88;73.68
13952;BME280;39535;52.192;9.886;2023-09-18T08:36:15;99725.06;;;22.93;74.43
13952;BME280;39535;52.192;9.886;2023-09-18T08:38:42;99739.81;;;22.97;73.85
13952;BME280;39535;52.192;9.886;2023-09-18T08:41:09;99730.88;;;22.98;73.30
13952;BME280;39535;52.192;9.886;2023-09-18T08:43:37;99769.47;;;23.04;72.76
13952;BME280;39535;52.192;9.886;2023-09-18T08:46:05;99754.44;;;23.14;74.10
13952;BME280;39535;52.192;9.886;2023-09-18T08:48:33;99738.47;;;23.14;73.11
13952;BME280;39535;52.192;9.886;2023-09-18T08:51:02;99758.94;;;23.13;72.93
13952;BME280;39535;52.192;9.886;2023-09-18T08:53:30;99745.47;;;23.15;73.46
13952;BME280;39535;52.192;9.886;2023-09-18T08:55:59;99769.78;;;23.22;72.20
13952;BME280;39535;52.192;9.886;2023-09-18T08:58:27;99791.44;;;23.17;70.97
13952;BME280;39535;52.192;9.886;2023-09-18T09:00:54;99796.75;;;23.28;71.79
13952;BME280;39535;52.192;9.886;2023-09-18T09:03:20;99778.91;;;23.40;72.18
13952;BME280;39535;52.192;9.886;2023-09-18T09:05:49;99769.09;;;23.40;71.45
13952;BME280;39535;52.192;9.886;2023-09-18T09:08:15;99786.97;;;23.50;71.59
13952;BME280;39535;52.192;9.886;2023-09-18T09:10:42;99788.69;;;23.51;71.63
13952;BME280;39535;52.192;9.886;2023-09-18T09:13:08;99797.66;;;23.38;70.23
13952;BME280;39535;52.192;9.886;2023-09-18T09:15:44;99805.66;;;23.38;70.72
13952;BME280;39535;52.192;9.886;2023-09-18T09:18:11;99802.34;;;23.46;71.34
13952;BME280;39535;52.192;9.886;2023-09-18T09:20:39;99802.53;;;23.33;71.04
13952;BME280;39535;52.192;9.886;2023-09-18T09:23:08;99824.44;;;23.37;70.96
13952;BME280;39535;52.192;9.886;2023-09-18T09:25:36;99832.38;;;23.48;70.27
13952;BME280;39535;52.192;9.886;2023-09-18T09:28:04;99814.66;;;23.58;71.67
13952;BME280;39535;52.192;9.886;2023-09-18T09:30:32;99828.75;;;23.49;72.32
13952;BME280;39535;52.192;9.886;2023-09-18T09:32:59;99813.72;;;23.27;71.54
13952;BME280;39535;52.192;9.886;2023-09-18T09:35:28;99806.25;;;23.42;71.82
13952;BME280;39535;52.192;9.886;2023-09-18T09:37:57;99812.13;;;23.25;70.78
13952;BME280;39535;52.192;9.886;2023-09-18T09:40:25;99804.50;;;23.31;70.91
13952;BME280;39535;52.192;9.886;2023-09-18T09:42:53;99813.56;;;23.29;70.89
13952;BME280;39535;52.192;9.886;2023-09-18T09:45:26;99798.38;;;23.40;71.74
13952;BME280;39535;52.192;9.886;2023-09-18T09:47:53;99801.03;;;23.19;71.01
13952;BME280;39535;52.192;9.886;2023-09-18T09:50:20;99807.91;;;23.22;70.82
13952;BME280;39535;52.192;9.886;2023-09-18T09:52:48;99833.31;;;23.15;69.71
13952;BME280;39535;52.192;9.886;2023-09-18T09:55:19;99824.34;;;23.27;70.52
13952;BME280;39535;52.192;9.886;2023-09-18T09:57:52;99812.81;;;23.38;71.37
13952;BME280;39535;52.192;9.886;2023-09-18T10:00:19;99794.13;;;23.49;71.53
13952;BME280;39535;52.192;9.886;2023-09-18T10:02:55;99785.16;;;23.50;71.63
13952;BME280;39535;52.192;9.886;2023-09-18T10:05:25;99816.28;;;23.50;69.56
13952;BME280;39535;52.192;9.886;2023-09-18T10:07:53;99820.38;;;23.54;70.19
13952;BME280;39535;52.192;9.886;2023-09-18T10:10:21;99845.59;;;23.50;69.77
13952;BME280;39535;52.192;9.886;2023-09-18T10:12:47;99855.19;;;23.41;69.06
13952;BME280;39535;52.192;9.886;2023-09-18T10:15:16;99847.03;;;23.54;69.80
13952;BME280;39535;52.192;9.886;2023-09-18T10:17:45;99857.34;;;23.47;69.29
13952;BME280;39535;52.192;9.886;2023-09-18T10:20:15;99841.22;;;23.49;69.48
13952;BME280;39535;52.192;9.886;2023-09-18T10:22:46;99829.41;;;23.63;70.03
13952;BME280;39535;52.192;9.886;2023-09-18T10:25:18;99843.25;;;23.56;68.97
13952;BME280;39535;52.192;9.886;2023-09-18T10:27:48;99840.84;;;23.53;69.53
13952;BME280;39535;52.192;9.886;2023-09-18T10:30:18;99840.06;;;23.63;69.58
13952;BME280;39535;52.192;9.886;2023-09-18T10:32:48;99839.88;;;23.54;70.86
13952;BME280;39535;52.192;9.886;2023-09-18T10:35:16;99812.59;;;23.62;70.18
13952;BME280;39535;52.192;9.886;2023-09-18T10:37:43;99845.75;;;23.69;69.52
13952;BME280;39535;52.192;9.886;2023-09-18T10:40:10;99862.69;;;23.68;68.57
13952;BME280;39535;52.192;9.886;2023-09-18T10:42:38;99859.66;;;23.73;69.12
13952;BME280;39535;52.192;9.886;2023-09-18T10:45:05;99859.06;;;23.69;69.03
13952;BME280;39535;52.192;9.886;2023-09-18T10:47:38;99857.47;;;23.46;68.59
13952;BME280;39535;52.192;9.886;2023-09-18T10:50:06;99867.28;;;23.45;69.52
13952;BME280;39535;52.192;9.886;2023-09-18T10:52:33;99842.63;;;23.64;69.70
13952;BME280;39535;52.192;9.886;2023-09-18T10:55:00;99855.00;;;23.54;70.81
13952;BME280;39535;52.192;9.886;2023-09-18T10:57:33;99860.66;;;23.60;69.76
13952;BME280;39535;52.192;9.886;2023-09-18T10:59:59;99881.16;;;23.60;69.18
13952;BME280;39535;52.192;9.886;2023-09-18T11:02:27;99861.97;;;23.66;69.77
13952;BME280;39535;52.192;9.886;2023-09-18T11:04:55;99907.47;;;23.53;69.03
13952;BME280;39535;52.192;9.886;2023-09-18T11:07:22;99885.63;;;23.59;71.09
13952;BME280;39535;52.192;9.886;2023-09-18T11:09:50;99897.50;;;23.67;69.56
13952;BME280;39535;52.192;9.886;2023-09-18T11:12:17;99891.19;;;23.79;70.10
13952;BME280;39535;52.192;9.886;2023-09-18T11:14:45;99875.25;;;23.89;70.98
13952;BME280;39535;52.192;9.886;2023-09-18T11:17:31;99878.50;;;23.92;70.35
13952;BME280;39535;52.192;9.886;2023-09-18T11:20:08;99854.06;;;23.87;70.35
13952;BME280;39535;52.192;9.886;2023-09-18T11:22:37;99879.00;;;23.86;69.51
13952;BME280;39535;52.192;9.886;2023-09-18T11:25:30;99905.03;;;23.94;67.99
13952;BME280;39535;52.192;9.886;2023-09-18T11:27:57;99906.22;;;24.01;67.46
13952;BME280;39535;52.192;9.886;2023-09-18T11:30:23;99934.06;;;24.08;67.40
13952;BME280;39535;52.192;9.886;2023-09-18T11:32:51;99940.63;;;24.25;67.58
13952;BME280;39535;52.192;9.886;2023-09-18T11:35:19;99925.81;;;24.32;67.37
13952;BME280;39535;52.192;9.886;2023-09-18T11:37:45;99926.66;;;24.33;66.83
13952;BME280;39535;52.192;9.886;2023-09-18T11:40:28;99961.47;;;24.10;66.81
13952;BME280;39535;52.192;9.886;2023-09-18T11:43:26;99944.97;;;24.05;67.23
13952;BME280;39535;52.192;9.886;2023-09-18T11:45:55;99933.09;;;24.09;67.94
13952;BME280;39535;52.192;9.886;2023-09-18T11:48:22;99920.75;;;24.08;68.62
13952;BME280;39535;52.192;9.886;2023-09-18T11:50:56;99904.19;;;23.93;68.00
13952;BME280;39535;52.192;9.886;2023-09-18T11:53:23;99899.19;;;24.00;68.22
13952;BME280;39535;52.192;9.886;2023-09-18T11:55:50;99912.91;;;23.95;67.75
13952;BME280;39535;52.192;9.886;2023-09-18T11:58:17;99927.22;;;24.15;68.61
13952;BME280;39535;52.192;9.886;2023-09-18T12:00:48;99915.69;;;24.26;67.09
13952;BME280;39535;52.192;9.886;2023-09-18T12:03:17;99916.22;;;24.30;67.62
13952;BME280;39535;52.192;9.886;2023-09-18T12:05:54;99954.75;;;24.37;67.18
13952;BME280;39535;52.192;9.886;2023-09-18T12:08:22;99949.31;;;24.38;67.37
13952;BME280;39535;52.192;9.886;2023-09-18T12:10:49;99957.50;;;24.47;66.96
13952;BME280;39535;52.192;9.886;2023-09-18T12:13:16;99988.13;;;24.31;65.80
13952;BME280;39535;52.192;9.886;2023-09-18T12:15:43;99990.75;;;24.54;66.32
13952;BME280;39535;52.192;9.886;2023-09-18T12:18:10;99996.88;;;24.75;65.84
13952;BME280;39535;52.192;9.886;2023-09-18T12:20:44;100002.22;;;24.75;65.35
13952;BME280;39535;52.192;9.886;2023-09-18T12:23:12;100026.66;;;24.71;65.83
13952;BME280;39535;52.192;9.886;2023-09-18T12:25:38;100042.94;;;24.68;63.87
13952;BME280;39535;52.192;9.886;2023-09-18T12:28:06;100036.81;;;24.56;64.42
13952;BME280;39535;52.192;9.886;2023-09-18T12:30:33;100026.97;;;24.56;64.79
13952;BME280;39535;52.192;9.886;2023-09-18T12:33:00;100020.09;;;24.54;64.62
13952;BME280;39535;52.192;9.886;2023-09-18T12:35:29;100004.34;;;24.72;65.93
13952;BME280;39535;52.192;9.886;2023-09-18T12:37:55;99984.78;;;24.71;65.82
13952;BME280;39535;52.192;9.886;2023-09-18T12:40:25;99987.16;;;24.65;65.43
13952;BME280;39535;52.192;9.886;2023-09-18T12:42:54;99974.81;;;24.73;66.02
13952;BME280;39535;52.192;9.886;2023-09-18T12:45:21;100018.28;;;24.43;64.51
13952;BME280;39535;52.192;9.886;2023-09-18T12:47:48;100011.94;;;24.23;64.43
13952;BME280;39535;52.192;9.886;2023-09-18T12:50:14;100007.00;;;24.51;65.79
13952;BME280;39535;52.192;9.886;2023-09-18T12:52:41;99999.91;;;24.50;66.38
13952;BME280;39535;52.192;9.886;2023-09-18T12:55:08;99970.81;;;24.58;66.06
13952;BME280;39535;52.192;9.886;2023-09-18T12:57:36;99977.59;;;24.62;65.87
13952;BME280;39535;52.192;9.886;2023-09-18T13:00:09;99986.13;;;24.56;65.11
13952;BME280;39535;52.192;9.886;2023-09-18T13:02:38;99995.41;;;24.62;65.59
13952;BME280;39535;52.192;9.886;2023-09-18T13:05:06;100010.06;;;24.35;65.69
13952;BME280;39535;52.192;9.886;2023-09-18T13:07:43;100004.44;;;24.17;65.08
13952;BME280;39535;52.192;9.886;2023-09-18T13:10:10;99979.16;;;24.32;65.96
13952;BME280;39535;52.192;9.886;2023-09-18T13:12:42;99930.16;;;24.33;67.52
13952;BME280;39535;52.192;9.886;2023-09-18T13:15:09;99949.63;;;24.24;66.45
13952;BME280;39535;52.192;9.886;2023-09-18T13:17:41;99931.72;;;24.36;66.72